Southampton, Massachusetts
Current Conditions -  °F | °C
As of 11:53 PM on Saturday 22 Nov 2014 (Local Time) from KBAF Reporting Station
Light Rain Light Rain  
Wind Chill: 38°   Ceiling: 7500
Heat Index: 38°   Visibility: 10mi
Dew Point: 24°   Wind: 0mph
Humidity: 57%   Direction: NA
Pressure: 30.09"   Gusts: NA
Location:  42.23°N, 72.73°W
Report Text: KBAF 230453Z 00000KT 10SM -RA FEW047 BKN075 OVC095 03/M04 A3009 RMK AO2 RAB36 SLP196 P0000 T00331044 400611106
Loading
Personal Weather Stations






























Interactive Weather Map New forecast layout! Learn more

10-Day Weather Forecast

Advertisements
Track Severe Weather on mobile